Wetterdaten der Wetterstation 22117 Öjendorf (Hamburg)

Letzte Wetterlage 30.08.2015 13:37
Wetterdiagramm
Tabellarische Darstellung
Datum Temperatur Windchill Feuchte Luftdruck Windrichtung Windstärke Niederschlag
30.08.2015 13:47 19,2 °C 19,2 °C 86 % 1018,6 hPa 3,2 l/m²
30.08.2015 13:37 18,8 °C 18,8 °C 88 % 1018,7 hPa 3,2 l/m²
30.08.2015 13:27 18,3 °C 18,3 °C 89 % 1018,7 hPa 3,2 l/m²
30.08.2015 13:17 17,7 °C 17,7 °C 91 % 1018,7 hPa 3,2 l/m²
30.08.2015 13:07 17,3 °C 17,3 °C 91 % 1018,7 hPa 3,2 l/m²
30.08.2015 12:57 17,3 °C 17,3 °C 90 % 1018,9 hPa 3,2 l/m²
30.08.2015 12:47 17,5 °C 17,5 °C 89 % 1019,2 hPa 3,0 l/m²
30.08.2015 12:37 17,7 °C 17,7 °C 86 % 1019,6 hPa 0,6 l/m²
30.08.2015 12:27 17,7 °C 17,7 °C 86 % 1019,5 hPa 0,3 l/m²
30.08.2015 12:17 17,7 °C 17,7 °C 86 % 1019,4 hPa 0,3 l/m²
30.08.2015 12:07 17,7 °C 17,7 °C 85 % 1019,1 hPa 0,3 l/m²
30.08.2015 11:57 17,6 °C 17,6 °C 84 % 1019,2 hPa 0,3 l/m²
30.08.2015 11:47 17,6 °C 17,6 °C 83 % 1019,1 hPa 0,3 l/m²
30.08.2015 11:37 17,6 °C 17,6 °C 84 % 1018,5 hPa 0,3 l/m²
30.08.2015 11:27 17,8 °C 17,8 °C 81 % 1018,5 hPa 0,2 l/m²
30.08.2015 11:17 17,9 °C 17,9 °C 77 % 1019,8 hPa 0 l/m²
30.08.2015 11:07 17,9 °C 17,9 °C 77 % 1018,9 hPa 0 l/m²
30.08.2015 10:57 17,8 °C 17,8 °C 78 % 1018,8 hPa 0 l/m²
30.08.2015 10:47 17,2 °C 17,2 °C 79 % 1018,9 hPa 0 l/m²
30.08.2015 10:37 16,8 °C 16,8 °C 81 % 1018,9 hPa 0 l/m²
30.08.2015 10:27 16,1 °C 16,1 °C 83 % 1019,1 hPa 0 l/m²
30.08.2015 10:17 15,7 °C 15,7 °C 85 % 1019,0 hPa 0 l/m²
30.08.2015 10:07 15,4 °C 15,4 °C 86 % 1019,4 hPa 0 l/m²
30.08.2015 09:57 15,1 °C 15,1 °C 86 % 1019,6 hPa 0 l/m²
30.08.2015 09:47 15,0 °C 15,0 °C 86 % 1019,3 hPa 0 l/m²
Neue Wetterwarnung

Neue Niederschlagsmeldung
Neue Meldung
Regen Liveticker
    sehr starker Regen/Gewitter
    starker Regen/Gewitter
    mäßiger bis starker Regen
    mäßiger Regen
    leichter bis mäßiger Regen
    kein Regen